Time;durP1;ratioP1;P1;durP2;ratioP2;P2;SDS_P1;SDS_P2;PMS_P1;PMS_P2;Temp;Humidity;BMP_temperature;BMP_pressure;BME280_temperature;BME280_humidity;BME280_pressure;Samples;Min_cycle;Max_cycle;Signal;HPM_P1;HPM_P2
2023/01/06 00:01:14;;;;;;;7.03;2.05;;;11.50;99.90;;;;;;5117809;28;20632;-55
2023/01/06 00:03:40;;;;;;;4.53;1.95;;;11.50;99.90;;;;;;5117715;28;20246;-56
2023/01/06 00:06:08;;;;;;;4.90;2.33;;;11.40;99.90;;;;;;5117699;28;20177;-56
2023/01/06 00:08:41;;;;;;;3.63;1.70;;;11.50;99.90;;;;;;5117599;28;20165;-55
2023/01/06 00:11:13;;;;;;;4.43;1.80;;;11.50;99.90;;;;;;5117559;28;20181;-57
2023/01/06 00:13:39;;;;;;;4.25;1.80;;;11.50;99.90;;;;;;5117516;28;20170;-57
2023/01/06 00:16:10;;;;;;;6.47;2.30;;;11.50;99.90;;;;;;5117593;28;20169;-56
2023/01/06 00:18:35;;;;;;;5.68;2.10;;;11.50;99.90;;;;;;5117648;28;20248;-57
2023/01/06 00:21:02;;;;;;;8.07;2.22;;;11.50;99.90;;;;;;5117365;28;20204;-55
2023/01/06 00:23:27;;;;;;;6.88;2.00;;;11.50;99.90;;;;;;5117086;28;20354;-55
2023/01/06 00:25:53;;;;;;;6.47;2.03;;;11.40;99.90;;;;;;5117159;28;20674;-56
2023/01/06 00:28:19;;;;;;;3.88;1.85;;;11.40;99.90;;;;;;5117153;28;20180;-56
2023/01/06 00:30:44;;;;;;;3.58;1.80;;;11.40;99.90;;;;;;5117320;28;20173;-55
2023/01/06 00:33:10;;;;;;;5.53;2.03;;;11.50;99.90;;;;;;5117155;28;20257;-56
2023/01/06 00:35:36;;;;;;;5.18;1.75;;;11.50;99.90;;;;;;5117027;28;20174;-58
2023/01/06 00:38:02;;;;;;;5.20;2.20;;;11.50;99.90;;;;;;5117022;28;20181;-54
2023/01/06 00:40:27;;;;;;;3.35;1.80;;;11.50;99.90;;;;;;5116780;28;20215;-56
2023/01/06 00:42:53;;;;;;;5.15;2.40;;;11.60;99.90;;;;;;5116791;28;20281;-56
2023/01/06 00:45:18;;;;;;;5.80;2.13;;;11.60;99.90;;;;;;5117092;28;20188;-55
2023/01/06 00:47:44;;;;;;;7.70;2.00;;;11.60;99.90;;;;;;5116919;28;20173;-56
2023/01/06 00:50:10;;;;;;;6.80;2.20;;;11.50;99.90;;;;;;5117055;28;20230;-56
2023/01/06 00:52:36;;;;;;;4.55;1.98;;;11.40;99.90;;;;;;5116652;28;20182;-57
2023/01/06 00:55:01;;;;;;;3.85;1.88;;;11.40;99.90;;;;;;5116583;28;20169;-55
2023/01/06 00:57:27;;;;;;;8.40;2.10;;;11.40;99.90;;;;;;5115549;28;20189;-56
2023/01/06 00:59:53;;;;;;;3.88;2.00;;;11.40;99.90;;;;;;5116014;28;20173;-55
2023/01/06 01:02:18;;;;;;;5.88;2.28;;;11.30;99.90;;;;;;5116477;28;20254;-57
2023/01/06 01:04:44;;;;;;;6.18;2.13;;;11.30;99.90;;;;;;5116438;28;20631;-56
2023/01/06 01:07:10;;;;;;;4.15;1.70;;;11.30;99.90;;;;;;5116372;28;20249;-55
2023/01/06 01:09:35;;;;;;;9.30;2.03;;;11.40;99.90;;;;;;5116630;28;20166;-56
2023/01/06 01:12:11;;;;;;;4.13;1.77;;;11.40;99.90;;;;;;5116511;28;20215;-57
2023/01/06 01:15:03;;;;;;;4.90;1.92;;;11.40;99.90;;;;;;5116516;28;20534;-56
2023/01/06 01:17:30;;;;;;;4.97;1.75;;;11.40;99.90;;;;;;5114011;28;20647;-56
2023/01/06 01:19:58;;;;;;;5.85;1.77;;;11.40;99.90;;;;;;5116070;28;20177;-57
2023/01/06 01:22:26;;;;;;;4.18;1.88;;;11.40;99.90;;;;;;5116204;28;20197;-57
2023/01/06 01:24:51;;;;;;;4.28;1.67;;;11.40;99.90;;;;;;5116104;28;20180;-55
2023/01/06 01:27:17;;;;;;;3.85;1.85;;;11.30;99.90;;;;;;5116152;28;20177;-56
2023/01/06 01:29:43;;;;;;;4.25;1.50;;;11.30;99.90;;;;;;5116042;28;20165;-55
2023/01/06 01:32:09;;;;;;;4.78;2.00;;;11.30;99.90;;;;;;5115963;28;20204;-57
2023/01/06 01:34:35;;;;;;;4.60;1.52;;;11.30;99.90;;;;;;5115940;28;20255;-58
2023/01/06 01:37:01;;;;;;;6.75;2.10;;;11.30;99.90;;;;;;5115981;28;20170;-56
2023/01/06 01:39:29;;;;;;;5.35;1.63;;;11.30;99.90;;;;;;5116220;28;20178;-56
2023/01/06 01:41:57;;;;;;;4.78;1.80;;;11.30;99.90;;;;;;5115737;28;20547;-56
2023/01/06 01:44:58;;;;;;;3.90;1.67;;;11.40;99.90;;;;;;5116060;28;20185;-57
2023/01/06 01:47:42;;;;;;;4.03;1.60;;;11.30;99.90;;;;;;5115810;28;20411;-55
2023/01/06 01:50:36;;;;;;;5.80;1.70;;;11.40;99.90;;;;;;5115681;28;20181;-55
2023/01/06 01:53:24;;;;;;;4.60;1.70;;;11.50;99.90;;;;;;5115391;28;20185;-55
2023/01/06 01:55:52;;;;;;;4.38;1.48;;;11.40;99.90;;;;;;5115606;28;20169;-56
2023/01/06 01:58:25;;;;;;;3.55;1.70;;;11.30;99.90;;;;;;5115552;28;20252;-56
2023/01/06 02:00:51;;;;;;;2.58;1.38;;;11.30;99.90;;;;;;5115490;28;20657;-55
2023/01/06 02:03:19;;;;;;;2.67;1.48;;;11.40;99.90;;;;;;5115297;28;20205;-56
2023/01/06 02:05:49;;;;;;;6.43;1.63;;;11.40;99.90;;;;;;5115258;28;20177;-55
2023/01/06 02:08:41;;;;;;;4.40;1.50;;;11.50;99.90;;;;;;5115442;28;20173;-56
2023/01/06 02:11:08;;;;;;;5.55;1.70;;;11.50;99.90;;;;;;5114399;28;20173;-56
2023/01/06 02:13:37;;;;;;;3.33;1.80;;;11.50;99.90;;;;;;5115499;28;20499;-54
2023/01/06 02:16:26;;;;;;;7.80;1.92;;;11.40;99.90;;;;;;5114863;28;20189;-55
2023/01/06 02:19:18;;;;;;;2.30;1.50;;;11.40;99.90;;;;;;5115202;28;20248;-57
2023/01/06 02:21:50;;;;;;;3.83;1.85;;;11.40;99.90;;;;;;5114816;28;20186;-56
2023/01/06 02:24:37;;;;;;;6.90;1.73;;;11.40;99.90;;;;;;5114898;28;20558;-57
2023/01/06 02:27:24;;;;;;;5.32;1.73;;;11.40;99.90;;;;;;5115018;28;20527;-56
2023/01/06 02:30:08;;;;;;;4.70;1.40;;;11.50;99.90;;;;;;5114964;28;20626;-56
2023/01/06 02:32:43;;;;;;;4.00;1.60;;;11.50;99.90;;;;;;5114774;28;20179;-56
2023/01/06 02:35:21;;;;;;;4.40;1.77;;;11.50;99.90;;;;;;5114936;28;20179;-56
2023/01/06 02:38:07;;;;;;;6.13;1.60;;;11.40;99.90;;;;;;5115021;28;20177;-56
2023/01/06 02:40:54;;;;;;;5.03;1.80;;;11.30;99.90;;;;;;5114743;28;20526;-56
2023/01/06 02:43:35;;;;;;;3.65;1.70;;;11.40;99.90;;;;;;5114451;28;20717;-56
2023/01/06 02:46:22;;;;;;;4.70;1.80;;;11.50;99.90;;;;;;5115030;28;20218;-57
2023/01/06 02:49:07;;;;;;;5.47;1.65;;;11.50;99.90;;;;;;5114629;28;20177;-57
2023/01/06 02:51:50;;;;;;;2.08;1.50;;;11.40;99.90;;;;;;5114376;28;20641;-56
2023/01/06 02:54:33;;;;;;;5.38;1.77;;;11.40;99.90;;;;;;5114683;28;20158;-55
2023/01/06 02:57:26;;;;;;;4.32;1.70;;;11.50;99.90;;;;;;5114312;28;20619;-56
2023/01/06 03:00:10;;;;;;;5.07;1.70;;;11.50;99.90;;;;;;5114221;28;20170;-56
2023/01/06 03:02:40;;;;;;;3.63;1.75;;;11.40;99.90;;;;;;5114570;28;20203;-54
2023/01/06 03:05:08;;;;;;;3.92;1.63;;;11.40;99.90;;;;;;5114178;28;20518;-56
2023/01/06 03:07:37;;;;;;;3.80;1.60;;;11.40;99.90;;;;;;5114110;28;20173;-55
2023/01/06 03:10:04;;;;;;;4.80;1.48;;;11.40;99.90;;;;;;5114054;28;20271;-56
2023/01/06 03:12:40;;;;;;;2.85;1.58;;;11.40;99.90;;;;;;5113945;28;20185;-56
2023/01/06 03:15:07;;;;;;;2.28;1.67;;;11.30;99.90;;;;;;5114278;28;20297;-55
2023/01/06 03:17:32;;;;;;;3.63;1.50;;;11.30;99.90;;;;;;5113992;28;20184;-55
2023/01/06 03:19:58;;;;;;;3.10;1.45;;;11.30;99.90;;;;;;5114005;28;20173;-56
2023/01/06 03:22:24;;;;;;;4.03;1.67;;;11.30;99.90;;;;;;5113698;28;20204;-55
2023/01/06 03:24:51;;;;;;;4.72;1.60;;;11.30;99.90;;;;;;5112497;28;20179;-55
2023/01/06 03:27:20;;;;;;;4.32;1.67;;;11.40;99.90;;;;;;5113874;28;20627;-55
2023/01/06 03:29:46;;;;;;;3.10;1.52;;;11.40;99.90;;;;;;5112683;28;20196;-56
2023/01/06 03:32:30;;;;;;;3.40;1.25;;;11.40;99.90;;;;;;5113838;28;20226;-56
2023/01/06 03:35:14;;;;;;;2.95;1.23;;;11.40;99.90;;;;;;5113864;28;20646;-56
2023/01/06 03:38:08;;;;;;;3.30;1.23;;;11.40;99.90;;;;;;5113900;28;20181;-55
2023/01/06 03:40:37;;;;;;;3.22;1.30;;;11.40;99.90;;;;;;5113718;28;20169;-55
2023/01/06 03:43:20;;;;;;;2.92;1.20;;;11.30;99.90;;;;;;5113630;28;20216;-55
2023/01/06 03:46:04;;;;;;;4.05;1.30;;;11.30;99.90;;;;;;5113484;28;20196;-57
2023/01/06 03:48:51;;;;;;;2.65;1.33;;;11.40;99.90;;;;;;5113859;28;20239;-55
2023/01/06 03:51:53;;;;;;;4.70;1.23;;;11.30;99.90;;;;;;5113709;28;20157;-55
2023/01/06 03:54:44;;;;;;;4.35;1.25;;;11.30;99.90;;;;;;5113828;28;20177;-56
2023/01/06 03:57:21;;;;;;;2.45;1.08;;;11.30;99.90;;;;;;5113669;28;20177;-55
2023/01/06 03:59:52;;;;;;;2.75;1.10;;;11.40;99.90;;;;;;5113606;28;20169;-55
2023/01/06 04:02:19;;;;;;;1.83;1.10;;;11.30;99.90;;;;;;5113409;28;20204;-56
2023/01/06 04:05:08;;;;;;;2.75;1.45;;;11.30;99.90;;;;;;5113722;28;20165;-55
2023/01/06 04:07:33;;;;;;;1.67;1.00;;;11.40;99.90;;;;;;5113456;28;20172;-55
2023/01/06 04:09:59;;;;;;;2.47;1.20;;;11.40;99.90;;;;;;5113562;28;20173;-57
2023/01/06 04:12:40;;;;;;;3.00;1.40;;;11.30;99.90;;;;;;5113288;28;20184;-56
2023/01/06 04:15:16;;;;;;;2.85;1.40;;;11.30;99.90;;;;;;5113382;28;20179;-55
2023/01/06 04:17:43;;;;;;;4.72;1.40;;;11.40;99.90;;;;;;5113514;28;20227;-57
2023/01/06 04:20:24;;;;;;;2.90;0.90;;;11.30;99.90;;;;;;5112091;28;20166;-55
2023/01/06 04:22:51;;;;;;;3.42;1.23;;;11.30;99.90;;;;;;5113327;28;20674;-55
2023/01/06 04:25:17;;;;;;;3.85;1.30;;;11.40;99.90;;;;;;5113232;28;20302;-55
2023/01/06 04:27:42;;;;;;;2.53;1.30;;;11.40;99.90;;;;;;5113352;28;20682;-55
2023/01/06 04:30:08;;;;;;;3.83;1.33;;;11.30;99.90;;;;;;5113397;28;20173;-56
2023/01/06 04:32:34;;;;;;;2.22;1.20;;;11.30;99.90;;;;;;5113359;28;20260;-56
2023/01/06 04:35:00;;;;;;;4.57;1.23;;;11.30;99.90;;;;;;5115902;28;20185;-57
2023/01/06 04:37:25;;;;;;;2.70;1.20;;;11.30;99.90;;;;;;5117010;28;20174;-55
2023/01/06 04:39:54;;;;;;;2.45;1.30;;;11.20;99.90;;;;;;5116971;28;20185;-55
2023/01/06 04:42:20;;;;;;;3.38;1.00;;;11.20;99.90;;;;;;5117016;28;20636;-56
2023/01/06 04:44:46;;;;;;;2.38;1.20;;;11.30;99.90;;;;;;5115944;28;20219;-57
2023/01/06 04:47:11;;;;;;;4.00;1.25;;;11.30;99.90;;;;;;5117047;28;20178;-58
2023/01/06 04:49:37;;;;;;;2.45;1.10;;;11.20;99.90;;;;;;5116710;28;20174;-57
2023/01/06 04:52:04;;;;;;;1.88;1.13;;;11.30;99.90;;;;;;5116854;28;20196;-56
2023/01/06 04:54:29;;;;;;;2.67;0.90;;;11.40;99.90;;;;;;5116664;28;20637;-55
2023/01/06 04:56:55;;;;;;;3.28;1.20;;;11.30;99.90;;;;;;5116598;28;20230;-55
2023/01/06 04:59:21;;;;;;;2.90;1.33;;;11.30;99.90;;;;;;5116779;28;20176;-56
2023/01/06 05:01:46;;;;;;;1.45;1.15;;;11.30;99.90;;;;;;5116587;28;20177;-57
2023/01/06 05:04:12;;;;;;;1.63;1.00;;;11.20;99.90;;;;;;5116554;28;20165;-56
2023/01/06 05:06:38;;;;;;;1.42;0.93;;;11.30;99.90;;;;;;5116784;28;20254;-57
2023/01/06 05:09:05;;;;;;;2.15;1.00;;;11.40;99.90;;;;;;5116343;28;20222;-55
2023/01/06 05:11:31;;;;;;;2.40;1.10;;;11.40;99.90;;;;;;5116323;28;20170;-56
2023/01/06 05:13:57;;;;;;;1.65;1.20;;;11.50;99.90;;;;;;5116283;28;20661;-55
2023/01/06 05:16:28;;;;;;;1.98;1.08;;;11.50;99.90;;;;;;5116300;28;20180;-57
2023/01/06 05:18:54;;;;;;;2.03;1.23;;;11.40;99.90;;;;;;5116250;28;20173;-57
2023/01/06 05:21:23;;;;;;;1.40;1.13;;;11.40;99.90;;;;;;5116101;28;20197;-55
2023/01/06 05:23:50;;;;;;;2.42;1.13;;;11.30;99.90;;;;;;5116235;28;20221;-57
2023/01/06 05:26:22;;;;;;;1.30;0.90;;;11.30;99.90;;;;;;5116269;28;20176;-57
2023/01/06 05:28:48;;;;;;;2.10;1.20;;;11.30;99.90;;;;;;5116283;28;20591;-57
2023/01/06 05:31:14;;;;;;;1.65;1.30;;;11.30;99.90;;;;;;5116071;28;20170;-57
2023/01/06 05:33:39;;;;;;;1.27;1.17;;;11.40;99.90;;;;;;5116117;28;20174;-57
2023/01/06 05:36:08;;;;;;;3.22;1.20;;;11.30;99.90;;;;;;5115827;28;20181;-56
2023/01/06 05:38:34;;;;;;;3.50;1.50;;;11.40;99.90;;;;;;5116303;28;20511;-55
2023/01/06 05:41:00;;;;;;;3.08;1.30;;;11.50;99.90;;;;;;5115880;28;20174;-55
2023/01/06 05:43:26;;;;;;;2.75;1.40;;;11.50;99.90;;;;;;5115891;28;20217;-54
2023/01/06 05:45:53;;;;;;;3.15;1.33;;;11.40;99.90;;;;;;5115562;28;20254;-56
2023/01/06 05:48:22;;;;;;;2.03;1.20;;;11.40;99.90;;;;;;5115724;28;20169;-55
2023/01/06 05:50:48;;;;;;;2.55;1.30;;;11.40;99.90;;;;;;5115567;28;20185;-57
2023/01/06 05:53:14;;;;;;;4.25;1.48;;;11.40;99.90;;;;;;5115530;28;20177;-55
2023/01/06 05:55:39;;;;;;;2.17;1.42;;;11.50;99.90;;;;;;5115711;28;20230;-56
2023/01/06 05:58:05;;;;;;;1.70;1.40;;;11.50;99.90;;;;;;5115542;28;20216;-56
2023/01/06 06:00:30;;;;;;;3.33;1.63;;;11.50;99.90;;;;;;5115501;28;20169;-56
2023/01/06 06:02:56;;;;;;;1.85;1.20;;;11.40;99.90;;;;;;5115499;28;20200;-56
2023/01/06 06:05:22;;;;;;;2.15;1.55;;;11.40;99.90;;;;;;5115241;28;20173;-55
2023/01/06 06:07:56;;;;;;;1.50;1.10;;;11.40;99.90;;;;;;5115400;28;20227;-57
2023/01/06 06:10:22;;;;;;;3.08;1.60;;;11.50;99.90;;;;;;5114653;28;20169;-57
2023/01/06 06:12:51;;;;;;;2.28;1.40;;;11.40;99.90;;;;;;5114927;28;20189;-57
2023/01/06 06:15:17;;;;;;;1.33;1.23;;;11.40;99.90;;;;;;5115075;28;20169;-55
2023/01/06 06:17:45;;;;;;;2.35;1.23;;;11.50;99.90;;;;;;5115119;28;20171;-55
2023/01/06 06:20:11;;;;;;;3.75;1.48;;;11.50;99.90;;;;;;5115319;28;20169;-57
2023/01/06 06:22:37;;;;;;;2.80;1.27;;;11.40;99.90;;;;;;5113850;28;20209;-55
2023/01/06 06:25:03;;;;;;;2.03;1.33;;;11.50;99.90;;;;;;5114945;28;20512;-56
2023/01/06 06:27:28;;;;;;;2.85;1.23;;;11.60;99.90;;;;;;5114907;28;20170;-55
2023/01/06 06:29:57;;;;;;;2.22;1.38;;;11.50;99.90;;;;;;5114778;28;20189;-57
2023/01/06 06:32:23;;;;;;;2.83;1.45;;;11.50;99.90;;;;;;5113990;28;20685;-57
2023/01/06 06:34:49;;;;;;;1.58;1.27;;;11.50;99.90;;;;;;5114034;28;20264;-57
2023/01/06 06:37:14;;;;;;;2.38;1.23;;;11.50;99.90;;;;;;5114671;28;20260;-55
2023/01/06 06:39:40;;;;;;;1.20;1.10;;;11.50;99.90;;;;;;5114250;28;20173;-56
2023/01/06 06:42:05;;;;;;;1.77;1.20;;;11.50;99.90;;;;;;5128482;27;20220;-56
2023/01/06 06:44:31;;;;;;;2.55;1.30;;;11.60;99.90;;;;;;5121195;27;20249;-57
2023/01/06 06:46:57;;;;;;;1.77;1.20;;;11.60;99.90;;;;;;5113652;28;20181;-55
2023/01/06 06:49:23;;;;;;;1.63;1.25;;;11.60;99.90;;;;;;5114558;28;20169;-57
2023/01/06 06:51:49;;;;;;;2.55;1.10;;;11.60;99.90;;;;;;5114800;28;20318;-57
2023/01/06 06:54:14;;;;;;;1.75;1.10;;;11.70;99.90;;;;;;5114511;28;20174;-55
2023/01/06 06:56:40;;;;;;;1.52;1.00;;;11.70;99.90;;;;;;5113693;28;20553;-57
2023/01/06 06:59:05;;;;;;;1.25;0.93;;;11.60;99.90;;;;;;5114286;28;20173;-55
2023/01/06 07:01:31;;;;;;;1.50;1.00;;;11.60;99.90;;;;;;5114164;28;20535;-55
2023/01/06 07:03:57;;;;;;;1.75;1.13;;;11.50;99.90;;;;;;5114093;28;20615;-55
2023/01/06 07:06:26;;;;;;;2.15;0.98;;;11.50;99.90;;;;;;5114215;28;20235;-57
2023/01/06 07:08:52;;;;;;;2.20;1.08;;;11.40;99.90;;;;;;5114183;28;20169;-56
2023/01/06 07:11:18;;;;;;;2.13;1.15;;;11.40;99.90;;;;;;5114192;28;20182;-56
2023/01/06 07:13:47;;;;;;;1.67;1.25;;;11.40;99.90;;;;;;5130218;27;20184;-55
2023/01/06 07:16:13;;;;;;;1.30;1.10;;;11.50;99.90;;;;;;5134530;27;20572;-55
2023/01/06 07:18:38;;;;;;;1.17;1.00;;;11.50;99.90;;;;;;5134736;27;20169;-55
2023/01/06 07:21:05;;;;;;;2.90;1.30;;;11.40;99.90;;;;;;5134646;27;20535;-55
2023/01/06 07:23:31;;;;;;;1.80;1.40;;;11.50;99.90;;;;;;5134588;27;20200;-55
2023/01/06 07:26:00;;;;;;;1.33;1.20;;;11.40;99.90;;;;;;5134535;27;20165;-55
2023/01/06 07:28:27;;;;;;;1.77;1.40;;;11.30;99.90;;;;;;5134538;27;20168;-55
2023/01/06 07:30:53;;;;;;;1.95;1.20;;;11.30;99.90;;;;;;5134306;27;20247;-55
2023/01/06 07:33:19;;;;;;;1.65;1.10;;;11.30;99.90;;;;;;5134713;27;20308;-56
2023/01/06 07:35:45;;;;;;;1.40;1.30;;;11.30;99.90;;;;;;5134437;27;20173;-54
2023/01/06 07:38:10;;;;;;;1.58;1.17;;;11.30;99.90;;;;;;5132871;27;20183;-55
2023/01/06 07:40:36;;;;;;;1.60;1.30;;;11.50;99.90;;;;;;5132876;28;20180;-55
2023/01/06 07:43:10;;;;;;;2.03;1.38;;;11.50;99.90;;;;;;5131818;27;20220;-56
2023/01/06 07:45:36;;;;;;;2.10;1.20;;;11.50;99.90;;;;;;5112637;27;20173;-55
2023/01/06 07:48:05;;;;;;;3.40;1.48;;;11.60;99.90;;;;;;5113817;28;20247;-56
2023/01/06 07:50:31;;;;;;;1.45;1.20;;;11.40;99.90;;;;;;5113602;28;20169;-56
2023/01/06 07:52:59;;;;;;;1.63;1.20;;;11.40;99.90;;;;;;5113705;28;20184;-56
2023/01/06 07:55:25;;;;;;;1.55;1.23;;;11.30;99.90;;;;;;5113634;28;20533;-55
2023/01/06 07:57:51;;;;;;;1.88;1.20;;;11.20;99.90;;;;;;5113486;28;20252;-54
2023/01/06 08:00:17;;;;;;;4.95;1.42;;;11.10;99.90;;;;;;5113731;28;20169;-57
2023/01/06 08:02:42;;;;;;;1.33;1.20;;;11.10;99.90;;;;;;5113616;28;20309;-56
2023/01/06 08:05:08;;;;;;;2.50;1.50;;;11.10;99.90;;;;;;5113439;28;20173;-55
2023/01/06 08:07:34;;;;;;;1.95;1.33;;;11.00;99.90;;;;;;5113834;28;20214;-55
2023/01/06 08:09:59;;;;;;;2.05;1.40;;;11.10;99.90;;;;;;5116294;28;20176;-55
2023/01/06 08:12:25;;;;;;;2.15;1.50;;;11.10;99.90;;;;;;5124135;27;20223;-56
2023/01/06 08:14:51;;;;;;;2.65;1.92;;;11.10;99.90;;;;;;5138272;27;20208;-55
2023/01/06 08:17:16;;;;;;;3.80;1.50;;;11.10;99.90;;;;;;5138099;27;20177;-55
2023/01/06 08:19:42;;;;;;;1.88;1.77;;;11.00;99.90;;;;;;5138066;27;20546;-56
2023/01/06 08:22:08;;;;;;;2.05;1.50;;;11.10;99.90;;;;;;5138172;27;20219;-56
2023/01/06 08:24:34;;;;;;;2.70;2.10;;;11.00;99.90;;;;;;5137906;27;20220;-55
2023/01/06 08:27:00;;;;;;;2.10;1.70;;;11.00;99.90;;;;;;5137697;27;20643;-57
2023/01/06 08:29:25;;;;;;;1.75;1.60;;;11.00;99.90;;;;;;5137847;27;20206;-56
2023/01/06 08:31:51;;;;;;;3.55;1.95;;;11.00;99.90;;;;;;5137699;27;20202;-55
2023/01/06 08:34:17;;;;;;;4.80;1.90;;;11.00;99.90;;;;;;5136510;27;20204;-54
2023/01/06 08:36:44;;;;;;;2.00;1.80;;;11.00;99.90;;;;;;5137707;27;20192;-55
2023/01/06 08:39:11;;;;;;;1.63;1.45;;;11.10;99.90;;;;;;5137608;27;20184;-55
2023/01/06 08:41:37;;;;;;;2.80;1.90;;;11.00;99.90;;;;;;5137729;27;20181;-57
2023/01/06 08:44:03;;;;;;;2.30;2.10;;;11.00;99.90;;;;;;5137381;27;20224;-55
2023/01/06 08:46:28;;;;;;;3.95;2.08;;;11.00;99.90;;;;;;5137469;27;20275;-55
2023/01/06 08:48:56;;;;;;;2.75;1.80;;;11.00;99.90;;;;;;5137427;27;20208;-57
2023/01/06 08:51:23;;;;;;;2.42;1.92;;;11.00;99.90;;;;;;5137360;27;20176;-55
2023/01/06 08:53:50;;;;;;;3.78;2.10;;;11.10;99.90;;;;;;5136040;27;20579;-56
2023/01/06 08:56:21;;;;;;;2.08;1.85;;;11.30;99.90;;;;;;5137221;27;20255;-55
2023/01/06 08:58:52;;;;;;;2.72;2.17;;;11.30;99.90;;;;;;5137437;27;20200;-55
2023/01/06 09:01:20;;;;;;;4.18;2.20;;;11.30;99.90;;;;;;5137215;27;20207;-56
2023/01/06 09:03:46;;;;;;;5.55;2.28;;;11.30;99.90;;;;;;5137062;27;20227;-56
2023/01/06 09:06:12;;;;;;;2.50;2.00;;;11.40;99.90;;;;;;5136987;27;20168;-54
2023/01/06 09:08:38;;;;;;;2.80;2.00;;;11.50;99.90;;;;;;5136877;27;20181;-54
2023/01/06 09:11:06;;;;;;;5.43;2.33;;;11.50;99.90;;;;;;5136851;27;20169;-56
2023/01/06 09:13:32;;;;;;;2.75;2.30;;;11.60;99.90;;;;;;5136697;27;20688;-55
2023/01/06 09:15:58;;;;;;;2.63;2.10;;;11.50;99.90;;;;;;5136967;27;20165;-54
2023/01/06 09:18:24;;;;;;;5.03;2.10;;;11.50;99.90;;;;;;5136792;27;20169;-54
2023/01/06 09:20:49;;;;;;;2.50;2.03;;;11.60;99.90;;;;;;5134920;27;20279;-54
2023/01/06 09:23:15;;;;;;;4.38;2.30;;;11.50;99.90;;;;;;5136550;27;20197;-54
2023/01/06 09:25:40;;;;;;;3.30;2.40;;;11.50;99.90;;;;;;5137170;27;20551;-56
2023/01/06 09:28:06;;;;;;;3.72;2.42;;;11.50;99.90;;;;;;5136813;27;20176;-56
2023/01/06 09:30:32;;;;;;;4.35;2.17;;;11.60;99.90;;;;;;5137056;27;20640;-55
2023/01/06 09:32:57;;;;;;;5.20;2.20;;;11.70;99.90;;;;;;5136566;27;20176;-55
2023/01/06 09:35:23;;;;;;;4.95;2.55;;;11.80;99.90;;;;;;5136488;27;20164;-58
2023/01/06 09:37:49;;;;;;;3.85;2.25;;;11.90;99.90;;;;;;5136384;27;20213;-58
2023/01/06 09:40:20;;;;;;;4.75;1.77;;;12.10;99.90;;;;;;5136602;27;20514;-58
2023/01/06 09:43:11;;;;;;;5.50;1.92;;;12.20;99.90;;;;;;5136035;27;20677;-54
2023/01/06 09:45:52;;;;;;;4.90;1.92;;;12.20;99.90;;;;;;5136192;27;20196;-54
2023/01/06 09:48:24;;;;;;;7.78;1.80;;;12.00;99.90;;;;;;5135967;27;20192;-55
2023/01/06 09:50:54;;;;;;;3.70;2.13;;;12.00;99.90;;;;;;5136383;27;20222;-54
2023/01/06 09:53:26;;;;;;;3.50;2.10;;;12.00;99.90;;;;;;5136240;27;20173;-55
2023/01/06 09:56:05;;;;;;;4.38;1.92;;;12.00;99.90;;;;;;5136204;27;20252;-55
2023/01/06 09:59:07;;;;;;;3.70;2.10;;;12.00;99.90;;;;;;5135971;27;20175;-54
2023/01/06 10:01:41;;;;;;;3.83;2.25;;;11.80;99.90;;;;;;5112128;27;20649;-55
2023/01/06 10:04:23;;;;;;;3.55;2.30;;;11.80;99.90;;;;;;5135957;27;20555;-55
2023/01/06 10:07:12;;;;;;;4.78;2.42;;;11.70;99.90;;;;;;5135943;27;20160;-55
2023/01/06 10:10:01;;;;;;;5.40;2.35;;;11.60;99.90;;;;;;5135950;27;20176;-56
2023/01/06 10:13:06;;;;;;;4.35;2.30;;;11.40;99.90;;;;;;5129849;27;20626;-54
2023/01/06 10:15:42;;;;;;;5.45;2.50;;;11.30;99.90;;;;;;5103960;28;20181;-56
2023/01/06 10:18:38;;;;;;;6.40;2.58;;;11.30;99.90;;;;;;5115323;28;20165;-54
2023/01/06 10:21:40;;;;;;;4.38;2.50;;;11.20;99.90;;;;;;5115011;28;20592;-54
2023/01/06 10:24:31;;;;;;;4.50;2.60;;;11.30;99.90;;;;;;5114637;28;20216;-51
2023/01/06 10:27:00;;;;;;;4.45;2.65;;;11.40;99.90;;;;;;5115016;28;20173;-54
2023/01/06 10:29:33;;;;;;;4.30;2.20;;;11.30;99.90;;;;;;5115172;28;20517;-54
2023/01/06 10:32:01;;;;;;;6.47;2.55;;;11.30;99.90;;;;;;5113835;28;20303;-53
2023/01/06 10:34:27;;;;;;;3.30;2.30;;;11.30;99.90;;;;;;5113614;28;20639;-53
2023/01/06 10:37:24;;;;;;;6.88;2.50;;;11.20;99.90;;;;;;5114873;28;20177;-54
2023/01/06 10:40:02;;;;;;;5.60;2.72;;;11.40;99.90;;;;;;5114628;28;20184;-53
2023/01/06 10:42:56;;;;;;;6.22;2.70;;;11.30;99.90;;;;;;5115093;28;20374;-53
2023/01/06 10:45:35;;;;;;;7.28;2.88;;;11.30;99.90;;;;;;5114419;28;20631;-53
2023/01/06 10:48:03;;;;;;;5.30;2.70;;;11.40;99.90;;;;;;5114556;28;20654;-54
2023/01/06 10:50:28;;;;;;;4.13;2.60;;;11.60;99.90;;;;;;5113161;28;20177;-54
2023/01/06 10:52:54;;;;;;;4.10;2.70;;;11.90;99.90;;;;;;5114313;28;20280;-54
2023/01/06 10:55:27;;;;;;;4.65;3.00;;;12.10;99.90;;;;;;5114604;28;20209;-54
2023/01/06 10:57:56;;;;;;;5.53;2.83;;;12.30;99.90;;;;;;5114422;28;20215;-54
2023/01/06 11:00:23;;;;;;;3.42;2.53;;;12.50;99.90;;;;;;5114383;28;20170;-54
2023/01/06 11:02:52;;;;;;;6.65;2.40;;;12.70;99.90;;;;;;5114156;28;20682;-54
2023/01/06 11:05:29;;;;;;;5.45;2.30;;;12.90;99.90;;;;;;5114110;28;20180;-54
2023/01/06 11:08:09;;;;;;;5.72;2.20;;;12.80;99.90;;;;;;5114400;28;20650;-55
2023/01/06 11:10:53;;;;;;;6.38;2.40;;;12.70;99.90;;;;;;5114145;28;20167;-56
2023/01/06 11:13:34;;;;;;;7.28;2.25;;;12.60;99.90;;;;;;5113627;28;20200;-53
2023/01/06 11:16:07;;;;;;;4.80;2.35;;;12.50;99.90;;;;;;5114042;28;20188;-53
2023/01/06 11:18:36;;;;;;;6.72;2.38;;;12.30;99.90;;;;;;5114116;28;20638;-54
2023/01/06 11:21:15;;;;;;;5.78;2.40;;;12.20;99.90;;;;;;5113957;28;20211;-55
2023/01/06 11:23:43;;;;;;;5.15;2.33;;;12.20;99.90;;;;;;5113872;28;20241;-54
2023/01/06 11:26:16;;;;;;;4.65;1.95;;;12.20;99.90;;;;;;5113905;28;20191;-55
2023/01/06 11:28:44;;;;;;;6.35;2.50;;;12.30;99.90;;;;;;5114300;28;20226;-54
2023/01/06 11:31:13;;;;;;;4.60;2.30;;;12.20;99.90;;;;;;5113965;28;20169;-53
2023/01/06 11:34:10;;;;;;;7.15;2.83;;;12.50;99.90;;;;;;5113826;28;20178;-54
2023/01/06 11:36:44;;;;;;;6.10;2.58;;;12.50;99.90;;;;;;5105705;28;20192;-54
2023/01/06 11:39:20;;;;;;;5.45;2.45;;;12.60;99.90;;;;;;5113865;28;20181;-54
2023/01/06 11:41:52;;;;;;;3.78;2.50;;;12.80;99.90;;;;;;5113686;28;20203;-54
2023/01/06 11:44:33;;;;;;;5.05;2.88;;;13.00;99.90;;;;;;5113457;28;20204;-54
2023/01/06 11:47:07;;;;;;;4.85;2.60;;;13.20;99.90;;;;;;5113694;28;20616;-57
2023/01/06 11:49:42;;;;;;;4.40;2.70;;;13.60;99.90;;;;;;5113810;28;20185;-54
2023/01/06 11:52:16;;;;;;;4.68;2.45;;;13.70;99.90;;;;;;5113742;28;20172;-54
2023/01/06 11:54:46;;;;;;;5.07;2.58;;;13.70;99.90;;;;;;5113612;28;20195;-54
2023/01/06 11:57:25;;;;;;;4.60;2.50;;;13.60;99.90;;;;;;5113840;28;20172;-54
2023/01/06 12:00:17;;;;;;;3.83;2.38;;;13.60;99.90;;;;;;5113822;28;20179;-54
2023/01/06 12:03:10;;;;;;;4.65;2.38;;;13.40;99.90;;;;;;5113397;28;20666;-55
2023/01/06 12:05:48;;;;;;;7.35;2.63;;;13.40;99.90;;;;;;5113523;28;20235;-56
2023/01/06 12:08:20;;;;;;;5.25;2.47;;;13.30;99.90;;;;;;5113685;28;20169;-53
2023/01/06 12:11:08;;;;;;;5.45;2.53;;;13.30;99.90;;;;;;5113483;28;20192;-56
2023/01/06 12:13:34;;;;;;;4.95;2.35;;;13.40;99.90;;;;;;5112938;28;20193;-55
2023/01/06 12:16:10;;;;;;;6.13;2.72;;;13.30;99.90;;;;;;5111939;28;20174;-54
2023/01/06 12:18:39;;;;;;;3.90;2.75;;;13.30;99.90;;;;;;5113649;28;20206;-53
2023/01/06 12:21:10;;;;;;;6.28;2.40;;;13.30;99.90;;;;;;5113273;28;20170;-54
2023/01/06 12:23:39;;;;;;;5.32;3.42;;;13.20;99.90;;;;;;5113414;28;20212;-52
2023/01/06 12:26:20;;;;;;;6.90;3.05;;;13.10;99.90;;;;;;5113379;28;20219;-51
2023/01/06 12:28:48;;;;;;;6.72;4.20;;;13.10;99.90;;;;;;5112034;28;20614;-51
2023/01/06 12:31:41;;;;;;;4.72;2.30;;;13.20;99.90;;;;;;5112060;28;20168;-53
2023/01/06 12:34:36;;;;;;;4.82;2.72;;;13.30;99.90;;;;;;5113189;28;20694;-53
2023/01/06 12:37:32;;;;;;;5.13;2.75;;;13.40;99.90;;;;;;5099575;28;20209;-54
2023/01/06 12:40:19;;;;;;;5.68;2.72;;;13.40;99.90;;;;;;5113052;28;20181;-52
2023/01/06 12:43:11;;;;;;;4.72;2.58;;;13.30;99.90;;;;;;5112940;28;20237;-53
2023/01/06 12:46:06;;;;;;;4.28;2.38;;;13.30;99.90;;;;;;5104793;28;20181;-53
2023/01/06 12:48:46;;;;;;;5.22;2.85;;;13.20;99.90;;;;;;5113228;28;20161;-51
2023/01/06 12:51:15;;;;;;;4.38;1.98;;;13.20;99.90;;;;;;5113117;28;20172;-52
2023/01/06 12:53:47;;;;;;;9.45;5.40;;;13.20;99.90;;;;;;5112899;28;20280;-54
2023/01/06 12:56:34;;;;;;;3.95;2.40;;;13.10;99.90;;;;;;5115933;28;20172;-54
2023/01/06 12:59:02;;;;;;;2.85;2.45;;;13.00;99.90;;;;;;5116668;28;20230;-53
2023/01/06 13:02:03;;;;;;;1.67;1.50;;;13.00;99.90;;;;;;5116641;28;20234;-54
2023/01/06 13:04:48;;;;;;;1.90;1.73;;;13.00;99.90;;;;;;5116573;28;20177;-53
2023/01/06 13:07:25;;;;;;;2.67;1.60;;;13.10;99.90;;;;;;5116772;28;20169;-53
2023/01/06 13:10:00;;;;;;;4.30;2.10;;;13.10;99.90;;;;;;5116548;28;20529;-53
2023/01/06 13:12:32;;;;;;;2.67;2.03;;;13.10;99.90;;;;;;5116321;28;20181;-54